createdAt,value
2018-12-19T00:00:24.111Z,9.00
2018-12-19T00:02:54.573Z,8.90
2018-12-19T00:05:24.996Z,8.70
2018-12-19T00:07:53.475Z,9.10
2018-12-19T00:10:22.750Z,8.90
2018-12-19T00:12:51.060Z,8.90
2018-12-19T00:15:19.455Z,9.10
2018-12-19T00:17:49.848Z,9.40
2018-12-19T00:20:18.168Z,9.30
2018-12-19T00:22:46.481Z,9.00
2018-12-19T00:25:14.832Z,8.80
2018-12-19T00:27:45.221Z,8.70
2018-12-19T00:30:15.705Z,9.00
2018-12-19T00:32:46.131Z,9.10
2018-12-19T00:35:16.604Z,9.00
2018-12-19T00:37:45.124Z,9.10
2018-12-19T00:40:13.449Z,9.00
2018-12-19T00:42:43.575Z,9.00
2018-12-19T00:45:11.850Z,8.80
2018-12-19T00:47:40.205Z,8.90
2018-12-19T00:50:08.830Z,9.00
2018-12-19T00:52:37.553Z,8.90
2018-12-19T00:55:06.832Z,9.00
2018-12-19T00:57:35.143Z,8.90
2018-12-19T01:00:04.173Z,8.80
2018-12-19T01:02:32.737Z,9.10
2018-12-19T01:05:01.049Z,9.00
2018-12-19T01:07:29.471Z,8.40
2018-12-19T01:09:57.795Z,8.60
2018-12-19T01:12:27.163Z,8.80
2018-12-19T01:14:56.767Z,8.80
2018-12-19T01:17:25.147Z,8.80
2018-12-19T01:19:53.473Z,8.80
2018-12-19T01:22:21.772Z,8.60
2018-12-19T01:24:50.600Z,8.80
2018-12-19T01:27:18.992Z,8.70
2018-12-19T01:29:47.479Z,8.80
2018-12-19T01:32:15.836Z,9.00
2018-12-19T01:34:44.140Z,9.00
2018-12-19T01:37:12.468Z,9.30
2018-12-19T01:39:40.769Z,9.30
2018-12-19T01:42:09.083Z,8.60
2018-12-19T01:44:37.392Z,8.40
2018-12-19T01:47:05.695Z,8.40
2018-12-19T01:49:33.992Z,8.70
2018-12-19T01:52:02.486Z,8.60
2018-12-19T01:54:30.815Z,8.60
2018-12-19T01:56:59.132Z,8.70
2018-12-19T01:59:27.492Z,8.70
2018-12-19T02:01:55.835Z,9.20
2018-12-19T02:04:24.238Z,8.90
2018-12-19T02:06:52.543Z,9.20
2018-12-19T02:09:20.872Z,8.90
2018-12-19T02:11:49.301Z,9.30
2018-12-19T02:14:17.583Z,9.20
2018-12-19T02:16:45.928Z,8.70
2018-12-19T02:19:14.276Z,8.50
2018-12-19T02:21:42.614Z,9.00
2018-12-19T02:24:11.042Z,9.10
2018-12-19T02:26:40.403Z,8.70
2018-12-19T02:29:08.899Z,8.60
2018-12-19T02:31:37.348Z,8.70
2018-12-19T02:34:06.191Z,8.70
2018-12-19T02:36:34.872Z,8.80
2018-12-19T02:39:05.496Z,8.20
2018-12-19T02:41:35.863Z,8.20
2018-12-19T02:44:04.279Z,8.30
2018-12-19T02:46:32.575Z,8.30
2018-12-19T02:49:00.879Z,8.10
2018-12-19T02:51:29.172Z,7.80
2018-12-19T02:53:57.475Z,8.70
2018-12-19T02:56:25.756Z,8.60
2018-12-19T02:58:54.097Z,8.30
2018-12-19T03:01:23.216Z,8.60
2018-12-19T03:03:51.492Z,8.30
2018-12-19T03:06:19.794Z,8.30
2018-12-19T03:08:48.096Z,8.10
2018-12-19T03:11:16.661Z,7.80
2018-12-19T03:13:48.087Z,7.90
2018-12-19T03:16:16.504Z,7.90
2018-12-19T03:18:44.842Z,8.00
2018-12-19T03:21:13.180Z,8.40
2018-12-19T03:23:41.480Z,8.70
2018-12-19T03:26:09.796Z,8.60
2018-12-19T03:28:38.144Z,8.50
2018-12-19T03:31:06.560Z,8.00
2018-12-19T03:33:37.120Z,8.30
2018-12-19T03:36:05.490Z,8.10
2018-12-19T03:38:33.814Z,7.90
2018-12-19T03:41:02.307Z,7.80
2018-12-19T03:43:30.626Z,8.00
2018-12-19T03:45:58.979Z,7.70
2018-12-19T03:48:32.625Z,7.90
2018-12-19T03:51:00.949Z,7.90
2018-12-19T03:53:32.053Z,7.90
2018-12-19T03:56:00.428Z,7.80
2018-12-19T03:58:29.148Z,8.10
2018-12-19T04:00:57.440Z,8.00
2018-12-19T04:03:25.780Z,8.20
2018-12-19T04:05:54.059Z,8.80
2018-12-19T04:08:22.443Z,8.40
2018-12-19T04:10:50.784Z,7.50
2018-12-19T04:13:19.116Z,7.70
2018-12-19T04:15:47.424Z,7.30
2018-12-19T04:18:15.814Z,7.00
2018-12-19T04:20:44.146Z,7.00
2018-12-19T04:23:12.517Z,7.30
2018-12-19T04:25:40.790Z,6.40
2018-12-19T04:28:09.187Z,6.10
2018-12-19T04:30:39.386Z,5.60
2018-12-19T04:33:08.420Z,5.50
2018-12-19T04:35:37.200Z,5.70
2018-12-19T04:38:05.499Z,6.10
2018-12-19T04:40:33.879Z,6.20
2018-12-19T04:43:02.288Z,5.80
2018-12-19T04:45:30.560Z,6.50
2018-12-19T04:47:58.882Z,6.50
2018-12-19T04:50:27.217Z,7.00
2018-12-19T04:52:55.516Z,7.30
2018-12-19T04:55:23.827Z,7.30
2018-12-19T04:57:52.112Z,7.20
2018-12-19T05:00:20.479Z,7.60
2018-12-19T05:02:48.866Z,8.00
2018-12-19T05:05:18.036Z,8.00
2018-12-19T05:07:46.585Z,7.90
2018-12-19T05:10:14.945Z,8.00
2018-12-19T05:12:43.248Z,8.10
2018-12-19T05:15:11.575Z,8.00
2018-12-19T05:17:39.888Z,8.10
2018-12-19T05:20:10.221Z,7.80
2018-12-19T05:22:38.495Z,7.90
2018-12-19T05:25:09.744Z,8.20
2018-12-19T05:27:38.038Z,7.90
2018-12-19T05:30:06.682Z,7.90
2018-12-19T05:32:35.015Z,7.50
2018-12-19T05:35:03.595Z,7.70
2018-12-19T05:37:31.972Z,7.70
2018-12-19T05:40:01.085Z,7.70
2018-12-19T05:42:30.422Z,7.50
2018-12-19T05:44:58.778Z,7.50
2018-12-19T05:47:27.427Z,7.60
2018-12-19T05:49:56.572Z,7.60
2018-12-19T05:52:26.362Z,7.90
2018-12-19T05:54:54.817Z,8.00
2018-12-19T05:57:26.308Z,7.80
2018-12-19T05:59:54.668Z,8.30
2018-12-19T06:02:23.971Z,8.20
2018-12-19T06:04:52.248Z,8.40
2018-12-19T06:07:20.523Z,8.40
2018-12-19T06:09:49.784Z,7.90
2018-12-19T06:12:18.096Z,7.60
2018-12-19T06:14:46.372Z,7.60
2018-12-19T06:17:15.506Z,7.70
2018-12-19T06:19:43.817Z,8.00
2018-12-19T06:22:12.128Z,7.60
2018-12-19T06:24:40.442Z,7.50
2018-12-19T06:27:08.812Z,7.50
2018-12-19T06:29:39.212Z,7.80
2018-12-19T06:32:07.539Z,7.90
2018-12-19T06:34:35.831Z,7.80
2018-12-19T06:37:04.748Z,7.70
2018-12-19T06:39:33.388Z,8.00
2018-12-19T06:42:01.823Z,7.60
2018-12-19T06:44:30.261Z,7.60
2018-12-19T06:46:58.579Z,7.40
2018-12-19T06:49:27.273Z,7.50
2018-12-19T06:51:56.227Z,7.60
2018-12-19T06:54:24.523Z,7.60
2018-12-19T06:56:52.843Z,7.60
2018-12-19T06:59:21.172Z,7.60
2018-12-19T07:01:49.854Z,7.70
2018-12-19T07:04:18.180Z,7.80
2018-12-19T07:06:46.496Z,7.70
2018-12-19T07:09:15.225Z,7.60
2018-12-19T07:11:43.653Z,7.60
2018-12-19T07:14:12.014Z,7.50
2018-12-19T07:16:43.465Z,7.80
2018-12-19T07:19:10.900Z,8.40
2018-12-19T07:21:39.232Z,8.50
2018-12-19T07:24:07.719Z,8.10
2018-12-19T07:26:36.036Z,8.40
2018-12-19T07:29:04.417Z,8.20
2018-12-19T07:31:32.824Z,8.30
2018-12-19T07:34:01.296Z,8.70
2018-12-19T07:36:29.787Z,9.20
2018-12-19T07:38:58.164Z,13.80
2018-12-19T07:41:26.563Z,15.20
2018-12-19T07:43:55.008Z,16.10
2018-12-19T07:46:24.292Z,15.50
2018-12-19T07:48:52.788Z,15.00
2018-12-19T07:51:21.571Z,18.40
2018-12-19T07:53:50.103Z,15.90
2018-12-19T07:56:18.764Z,17.00
2018-12-19T07:58:47.159Z,16.00
2018-12-19T08:01:15.544Z,18.20
2018-12-19T08:03:44.819Z,17.60
2018-12-19T08:06:13.176Z,18.00
2018-12-19T08:08:41.634Z,20.00
2018-12-19T08:11:10.048Z,18.30
2018-12-19T08:13:38.401Z,19.00
2018-12-19T08:16:06.795Z,18.40
2018-12-19T08:18:35.159Z,18.70
2018-12-19T08:21:03.501Z,16.50
2018-12-19T08:23:32.224Z,17.50
2018-12-19T08:26:01.022Z,17.10
2018-12-19T08:28:29.400Z,18.50
2018-12-19T08:30:57.736Z,17.40
2018-12-19T08:33:26.095Z,17.20
2018-12-19T08:35:54.556Z,20.60
2018-12-19T08:38:24.829Z,21.50
2018-12-19T08:40:58.774Z,17.40
2018-12-19T08:43:25.370Z,17.20
2018-12-19T08:45:54.173Z,15.10
2018-12-19T08:48:22.547Z,13.40
2018-12-19T08:50:50.956Z,13.40
2018-12-19T08:53:19.350Z,14.60
2018-12-19T08:55:47.852Z,14.00
2018-12-19T08:58:16.212Z,13.40
2018-12-19T09:00:44.563Z,12.70
2018-12-19T09:03:13.045Z,12.30
2018-12-19T09:05:41.643Z,12.50
2018-12-19T09:08:10.230Z,12.00
2018-12-19T09:10:38.638Z,12.10
2018-12-19T09:13:07.099Z,12.20
2018-12-19T09:15:40.916Z,12.20
2018-12-19T09:18:09.353Z,12.00
2018-12-19T09:20:37.707Z,12.50
2018-12-19T09:23:07.092Z,12.40
2018-12-19T09:25:35.439Z,12.60
2018-12-19T09:28:04.112Z,12.50
2018-12-19T09:30:32.476Z,12.40
2018-12-19T09:33:00.860Z,12.00
2018-12-19T09:35:29.220Z,12.10
2018-12-19T09:37:57.644Z,12.20
2018-12-19T09:40:26.120Z,13.00
2018-12-19T09:42:54.537Z,12.40
2018-12-19T09:45:23.391Z,12.90
2018-12-19T09:47:51.784Z,13.10
2018-12-19T09:50:20.122Z,12.10
2018-12-19T09:52:48.531Z,12.30
2018-12-19T09:55:16.899Z,11.90
2018-12-19T09:57:45.456Z,11.90
2018-12-19T10:00:19.254Z,12.00
2018-12-19T10:02:49.316Z,12.50
2018-12-19T10:05:17.893Z,12.10
2018-12-19T10:07:47.234Z,12.30
2018-12-19T10:10:16.292Z,13.40
2018-12-19T10:12:44.701Z,12.90
2018-12-19T10:15:13.099Z,12.60
2018-12-19T10:17:41.504Z,12.90
2018-12-19T10:20:10.055Z,13.70
2018-12-19T10:22:38.465Z,13.20
2018-12-19T10:25:13.863Z,13.30
2018-12-19T10:27:42.390Z,13.90
2018-12-19T10:30:12.527Z,13.90
2018-12-19T10:32:41.240Z,14.10
2018-12-19T10:35:10.807Z,14.00
2018-12-19T10:37:39.152Z,14.00
2018-12-19T10:40:11.536Z,14.00
2018-12-19T10:42:39.912Z,14.10
2018-12-19T10:45:09.854Z,13.80
2018-12-19T10:47:38.304Z,13.70
2018-12-19T10:50:09.051Z,13.40
2018-12-19T10:52:44.237Z,13.30
2018-12-19T10:55:13.349Z,13.80
2018-12-19T10:57:42.474Z,14.10
2018-12-19T11:00:17.987Z,14.20
2018-12-19T11:02:47.323Z,13.90
2018-12-19T11:05:16.456Z,14.10
2018-12-19T11:07:45.766Z,14.00
2018-12-19T11:10:14.844Z,14.20
2018-12-19T11:12:43.920Z,14.00
2018-12-19T11:15:12.979Z,13.90
2018-12-19T11:17:42.151Z,13.60
2018-12-19T11:20:11.464Z,13.50
2018-12-19T11:22:40.890Z,13.70
2018-12-19T11:25:09.976Z,14.00
2018-12-19T11:27:40.119Z,13.30
2018-12-19T11:30:09.887Z,12.70
2018-12-19T11:32:38.966Z,12.10
2018-12-19T11:35:08.193Z,12.20
2018-12-19T11:37:37.353Z,12.70
2018-12-19T11:40:08.159Z,12.30
2018-12-19T11:42:37.280Z,12.60
2018-12-19T11:45:06.664Z,13.20
2018-12-19T11:47:35.742Z,13.30
2018-12-19T11:50:05.590Z,13.10
2018-12-19T11:52:35.063Z,13.80
2018-12-19T11:55:04.187Z,13.60
2018-12-19T11:57:34.484Z,13.70
2018-12-19T12:00:05.391Z,14.30
2018-12-19T12:02:34.562Z,14.50
2018-12-19T12:05:04.440Z,14.90
2018-12-19T12:07:35.737Z,15.00
2018-12-19T12:10:05.734Z,15.00
2018-12-19T12:12:34.935Z,14.80
2018-12-19T12:15:05.467Z,14.60
2018-12-19T12:17:35.729Z,14.50
2018-12-19T12:20:06.623Z,14.70
2018-12-19T12:22:35.742Z,14.90
2018-12-19T12:25:05.530Z,14.70
2018-12-19T12:27:34.043Z,14.50
2018-12-19T12:30:02.489Z,14.80
2018-12-19T12:32:30.985Z,14.90
2018-12-19T12:34:59.512Z,14.70
2018-12-19T12:37:27.805Z,14.50
2018-12-19T12:39:56.252Z,14.90
2018-12-19T12:42:24.681Z,15.10
2018-12-19T12:44:53.340Z,15.00
2018-12-19T12:47:21.712Z,14.90
2018-12-19T12:49:50.217Z,15.00
2018-12-19T12:52:18.602Z,15.10
2018-12-19T12:54:47.130Z,15.00
2018-12-19T12:57:15.512Z,14.60
2018-12-19T12:59:43.938Z,14.80
2018-12-19T13:02:12.432Z,14.80
2018-12-19T13:04:41.240Z,15.00
2018-12-19T13:07:09.661Z,14.40
2018-12-19T13:09:38.113Z,14.00
2018-12-19T13:12:06.476Z,14.60
2018-12-19T13:14:34.883Z,14.40
2018-12-19T13:17:03.272Z,14.30
2018-12-19T13:19:32.692Z,14.90
2018-12-19T13:22:01.016Z,15.00
2018-12-19T13:24:29.413Z,15.10
2018-12-19T13:26:57.817Z,15.20
2018-12-19T13:29:26.904Z,15.30
2018-12-19T13:31:56.386Z,15.10
2018-12-19T13:34:26.491Z,15.20
2018-12-19T13:36:55.607Z,14.60
2018-12-19T13:39:24.696Z,14.80
2018-12-19T13:41:54.038Z,14.70
2018-12-19T13:44:23.173Z,14.70
2018-12-19T13:46:52.402Z,15.00
2018-12-19T13:49:21.600Z,14.90
2018-12-19T13:51:51.083Z,14.70
2018-12-19T13:54:20.221Z,15.00
2018-12-19T13:56:49.294Z,14.80
2018-12-19T13:59:18.373Z,14.30
2018-12-19T14:01:47.458Z,14.60
2018-12-19T14:04:16.643Z,14.80
2018-12-19T14:06:45.698Z,14.40
2018-12-19T14:09:15.271Z,14.60
2018-12-19T14:11:44.364Z,14.20
2018-12-19T14:14:13.887Z,14.40
2018-12-19T14:16:42.243Z,14.60
2018-12-19T14:19:10.637Z,14.70
2018-12-19T14:21:39.283Z,14.50
2018-12-19T14:24:07.708Z,14.20
2018-12-19T14:26:36.091Z,14.40
2018-12-19T14:29:04.456Z,14.30
2018-12-19T14:31:32.852Z,14.60
2018-12-19T14:34:01.289Z,14.50
2018-12-19T14:36:30.766Z,14.90
2018-12-19T14:38:59.210Z,15.00
2018-12-19T14:41:27.560Z,15.00
2018-12-19T14:43:56.013Z,14.50
2018-12-19T14:46:25.064Z,14.00
2018-12-19T14:48:53.599Z,13.90
2018-12-19T14:51:22.036Z,14.10
2018-12-19T14:53:50.380Z,13.70
2018-12-19T14:56:18.760Z,13.30
2018-12-19T14:58:47.115Z,13.40
2018-12-19T15:01:15.472Z,13.60
2018-12-19T15:03:43.855Z,13.50
2018-12-19T15:06:12.480Z,13.30
2018-12-19T15:08:40.857Z,13.10
2018-12-19T15:11:10.372Z,12.80
2018-12-19T15:13:38.921Z,12.90
2018-12-19T15:16:07.560Z,12.90
2018-12-19T15:18:35.995Z,12.80
2018-12-19T15:21:04.515Z,12.70
2018-12-19T15:23:32.889Z,12.50
2018-12-19T15:26:01.401Z,12.50
2018-12-19T15:28:29.819Z,12.80
2018-12-19T15:30:58.289Z,12.70
2018-12-19T15:33:26.654Z,12.30
2018-12-19T15:35:55.123Z,12.30
2018-12-19T15:38:23.603Z,12.20
2018-12-19T15:40:52.300Z,12.10
2018-12-19T15:43:20.652Z,11.90
2018-12-19T15:45:49.003Z,12.00
2018-12-19T15:48:17.353Z,11.90
2018-12-19T15:50:45.765Z,12.00
2018-12-19T15:53:15.568Z,12.00
2018-12-19T15:55:43.891Z,12.10
2018-12-19T15:58:12.326Z,12.10
2018-12-19T16:00:40.687Z,11.60
2018-12-19T16:03:09.065Z,11.00
2018-12-19T16:05:37.448Z,11.10
2018-12-19T16:08:05.820Z,11.00
2018-12-19T16:10:34.123Z,10.90
2018-12-19T16:13:02.477Z,11.10
2018-12-19T16:15:30.846Z,11.40
2018-12-19T16:17:59.223Z,11.70
2018-12-19T16:20:27.558Z,11.60
2018-12-19T16:22:55.940Z,11.80
2018-12-19T16:25:24.630Z,11.90
2018-12-19T16:27:54.016Z,12.30
2018-12-19T16:30:22.454Z,12.00
2018-12-19T16:32:51.223Z,12.10
2018-12-19T16:35:19.564Z,12.10
2018-12-19T16:37:48.063Z,12.30
2018-12-19T16:40:16.829Z,12.00
2018-12-19T16:42:46.169Z,11.60
2018-12-19T16:45:15.048Z,11.10
2018-12-19T16:47:45.062Z,11.20
2018-12-19T16:50:13.411Z,11.10
2018-12-19T16:52:41.773Z,11.10
2018-12-19T16:55:10.086Z,11.10
2018-12-19T16:57:38.481Z,10.90
2018-12-19T17:00:13.400Z,10.70
2018-12-19T17:02:41.884Z,10.70
2018-12-19T17:05:10.230Z,11.10
2018-12-19T17:07:38.569Z,11.20
2018-12-19T17:10:07.848Z,10.90
2018-12-19T17:12:36.364Z,10.80
2018-12-19T17:15:05.160Z,10.90
2018-12-19T17:17:45.730Z,11.00
2018-12-19T17:20:14.056Z,10.90
2018-12-19T17:22:43.184Z,11.10
2018-12-19T17:25:11.494Z,11.00
2018-12-19T17:27:39.902Z,10.90
2018-12-19T17:30:08.491Z,10.90
2018-12-19T17:32:36.852Z,10.80
2018-12-19T17:35:05.622Z,11.00
2018-12-19T17:37:33.988Z,11.00
2018-12-19T17:40:02.378Z,11.00
2018-12-19T17:42:31.067Z,11.00
2018-12-19T17:44:59.275Z,10.80
2018-12-19T17:47:27.652Z,10.60
2018-12-19T17:49:55.875Z,10.10
2018-12-19T17:52:24.352Z,9.80
2018-12-19T17:54:52.686Z,9.60
2018-12-19T17:57:21.072Z,9.70
2018-12-19T17:59:49.437Z,9.90
2018-12-19T18:02:21.944Z,10.40
2018-12-19T18:04:50.396Z,10.70
2018-12-19T18:07:18.760Z,10.50
2018-12-19T18:09:48.089Z,10.20
2018-12-19T18:12:16.431Z,10.20
2018-12-19T18:14:44.688Z,10.20
2018-12-19T18:17:13.044Z,10.40
2018-12-19T18:19:41.346Z,10.10
2018-12-19T18:22:09.612Z,10.10
2018-12-19T18:24:38.180Z,10.10
2018-12-19T18:27:06.608Z,10.10
2018-12-19T18:29:34.916Z,10.20
2018-12-19T18:32:03.200Z,10.30
2018-12-19T18:34:33.188Z,10.10
2018-12-19T18:37:01.705Z,9.90
2018-12-19T18:39:29.997Z,10.00
2018-12-19T18:41:58.540Z,9.90
2018-12-19T18:44:27.243Z,9.70
2018-12-19T18:46:55.919Z,9.70
2018-12-19T18:49:24.411Z,9.80
2018-12-19T18:51:52.888Z,9.90
2018-12-19T18:54:21.298Z,10.00
2018-12-19T18:56:50.779Z,9.90
2018-12-19T18:59:19.019Z,10.20
2018-12-19T19:01:47.317Z,10.00
2018-12-19T19:04:15.854Z,10.00
2018-12-19T19:06:44.373Z,9.90
2018-12-19T19:09:13.030Z,9.90
2018-12-19T19:11:42.220Z,10.10
2018-12-19T19:14:10.780Z,10.10
2018-12-19T19:16:39.191Z,10.40
2018-12-19T19:19:07.699Z,10.60
2018-12-19T19:21:36.576Z,10.40
2018-12-19T19:24:05.060Z,10.50
2018-12-19T19:26:33.559Z,10.60
2018-12-19T19:29:02.244Z,10.60
2018-12-19T19:31:30.752Z,10.80
2018-12-19T19:33:59.852Z,10.60
2018-12-19T19:36:28.377Z,10.60
2018-12-19T19:38:56.832Z,10.80
2018-12-19T19:41:25.076Z,10.70
2018-12-19T19:43:53.375Z,10.50
2018-12-19T19:46:21.751Z,10.20
2018-12-19T19:48:50.805Z,10.20
2018-12-19T19:51:19.405Z,10.10
2018-12-19T19:53:47.884Z,10.10
2018-12-19T19:56:16.625Z,10.20
2018-12-19T19:58:45.556Z,9.90
2018-12-19T20:01:14.576Z,9.90
2018-12-19T20:03:43.584Z,9.90
2018-12-19T20:06:12.452Z,10.00
2018-12-19T20:08:42.236Z,10.20
2018-12-19T20:19:09.235Z,10.30
2018-12-19T20:21:38.314Z,10.20
2018-12-19T20:24:07.232Z,9.80
2018-12-19T20:26:36.179Z,9.60
2018-12-19T20:29:05.593Z,9.00
2018-12-19T20:31:34.936Z,9.40
2018-12-19T20:34:03.896Z,9.30
2018-12-19T20:36:32.560Z,9.20
2018-12-19T20:39:01.339Z,9.00
2018-12-19T20:41:32.000Z,9.10
2018-12-19T20:44:00.770Z,9.10
2018-12-19T20:46:29.294Z,9.10
2018-12-19T20:48:58.508Z,8.90
2018-12-19T20:51:27.006Z,8.90
2018-12-19T20:53:55.547Z,8.90
2018-12-19T20:56:25.131Z,8.90
2018-12-19T20:58:53.659Z,9.10
2018-12-19T21:01:22.089Z,9.30
2018-12-19T21:03:50.465Z,9.10
2018-12-19T21:06:19.260Z,9.30
2018-12-19T21:08:47.785Z,9.40
2018-12-19T21:11:16.136Z,9.40
2018-12-19T21:13:46.927Z,9.10
2018-12-19T21:16:15.129Z,9.00
2018-12-19T21:18:50.862Z,9.10
2018-12-19T21:21:19.323Z,9.20
2018-12-19T21:23:47.716Z,9.10
2018-12-19T21:26:16.023Z,9.00
2018-12-19T21:28:44.707Z,9.40
2018-12-19T21:31:13.338Z,9.50
2018-12-19T21:33:41.772Z,9.80
2018-12-19T21:36:10.125Z,9.40
2018-12-19T21:38:40.499Z,8.90
2018-12-19T21:41:10.430Z,8.80
2018-12-19T21:43:38.840Z,8.70
2018-12-19T21:46:07.294Z,8.80
2018-12-19T21:48:35.886Z,8.70
2018-12-19T21:51:04.419Z,8.90
2018-12-19T21:53:32.823Z,9.20
2018-12-19T21:56:01.259Z,8.90
2018-12-19T21:58:30.034Z,8.90
2018-12-19T22:00:58.628Z,9.00
2018-12-19T22:03:27.634Z,9.00
2018-12-19T22:05:57.139Z,8.80
2018-12-19T22:08:25.668Z,8.90
2018-12-19T22:10:54.079Z,8.80
2018-12-19T22:13:22.513Z,8.70
2018-12-19T22:15:51.056Z,8.80
2018-12-19T22:18:25.602Z,9.00
2018-12-19T22:20:54.073Z,8.90
2018-12-19T22:23:22.515Z,8.60
2018-12-19T22:25:50.999Z,8.70
2018-12-19T22:28:19.897Z,8.80
2018-12-19T22:30:48.374Z,8.90
2018-12-19T22:33:16.918Z,8.90
2018-12-19T22:35:45.390Z,8.70
2018-12-19T22:38:13.915Z,8.70
2018-12-19T22:40:43.433Z,8.80
2018-12-19T22:43:12.167Z,8.70
2018-12-19T22:45:41.270Z,8.80
2018-12-19T22:48:10.251Z,8.80
2018-12-19T22:50:38.754Z,9.00
2018-12-19T22:53:07.266Z,9.00
2018-12-19T22:55:35.779Z,9.30
2018-12-19T22:58:04.921Z,9.70
2018-12-19T23:00:38.386Z,8.90
2018-12-19T23:03:09.197Z,8.80
2018-12-19T23:05:43.126Z,8.70
2018-12-19T23:08:11.874Z,8.90
2018-12-19T23:10:40.747Z,9.00
2018-12-19T23:13:09.195Z,9.10
2018-12-19T23:15:38.687Z,9.50
2018-12-19T23:18:18.923Z,9.60
2018-12-19T23:20:53.571Z,9.30
2018-12-19T23:23:27.885Z,9.20
2018-12-19T23:26:03.391Z,8.90
2018-12-19T23:28:34.465Z,9.10
2018-12-19T23:31:05.386Z,9.20
2018-12-19T23:33:33.959Z,8.80
2018-12-19T23:36:06.309Z,9.20
2018-12-19T23:38:39.040Z,9.30
2018-12-19T23:41:07.524Z,9.30
2018-12-19T23:43:36.975Z,9.60
2018-12-19T23:46:05.363Z,9.60
2018-12-19T23:48:37.427Z,9.40
2018-12-19T23:51:05.871Z,9.40
2018-12-19T23:53:34.294Z,9.50
2018-12-19T23:56:04.791Z,9.60
2018-12-19T23:58:33.303Z,9.70
